sensor_id;sensor_type;location;lat;lon;timestamp;pressure;altitude;pressure_sealevel;temperature;humidity
70982;BME280;58640;51.320;9.456;2023-03-26T00:00:53;98396.03;;;6.11;100.00
70982;BME280;58640;51.320;9.456;2023-03-26T00:03:20;98399.91;;;5.92;100.00
70982;BME280;58640;51.320;9.456;2023-03-26T00:05:46;98405.56;;;5.97;100.00
70982;BME280;58640;51.320;9.456;2023-03-26T00:08:13;98392.44;;;5.87;100.00
70982;BME280;58640;51.320;9.456;2023-03-26T00:10:40;98392.09;;;5.82;100.00
70982;BME280;58640;51.320;9.456;2023-03-26T00:13:06;98391.56;;;6.03;100.00
70982;BME280;58640;51.320;9.456;2023-03-26T00:15:33;98395.03;;;6.04;100.00
70982;BME280;58640;51.320;9.456;2023-03-26T00:17:59;98393.19;;;6.12;100.00
70982;BME280;58640;51.320;9.456;2023-03-26T00:20:28;98396.91;;;6.03;100.00
70982;BME280;58640;51.320;9.456;2023-03-26T00:22:54;98392.03;;;6.07;100.00
70982;BME280;58640;51.320;9.456;2023-03-26T00:25:21;98393.41;;;5.94;100.00
70982;BME280;58640;51.320;9.456;2023-03-26T00:27:48;98393.59;;;5.93;100.00
70982;BME280;58640;51.320;9.456;2023-03-26T00:30:14;98387.84;;;6.12;100.00
70982;BME280;58640;51.320;9.456;2023-03-26T00:32:39;98399.69;;;6.10;100.00
70982;BME280;58640;51.320;9.456;2023-03-26T00:35:05;98405.97;;;6.25;100.00
70982;BME280;58640;51.320;9.456;2023-03-26T00:37:31;98409.84;;;6.22;100.00
70982;BME280;58640;51.320;9.456;2023-03-26T00:39:58;98399.22;;;6.67;99.16
70982;BME280;58640;51.320;9.456;2023-03-26T00:42:29;98402.88;;;6.44;98.72
70982;BME280;58640;51.320;9.456;2023-03-26T00:44:56;98390.31;;;6.52;97.55
70982;BME280;58640;51.320;9.456;2023-03-26T00:47:26;98391.34;;;6.43;97.57
70982;BME280;58640;51.320;9.456;2023-03-26T00:49:51;98392.34;;;6.50;97.83
70982;BME280;58640;51.320;9.456;2023-03-26T00:52:17;98394.16;;;6.50;97.21
70982;BME280;58640;51.320;9.456;2023-03-26T00:54:46;98395.41;;;6.39;97.40
70982;BME280;58640;51.320;9.456;2023-03-26T00:57:12;98386.16;;;6.50;96.86
70982;BME280;58640;51.320;9.456;2023-03-26T00:59:39;98395.72;;;6.44;96.82
70982;BME280;58640;51.320;9.456;2023-03-26T01:02:06;98384.72;;;6.39;97.15
70982;BME280;58640;51.320;9.456;2023-03-26T01:04:35;98394.03;;;6.43;96.66
70982;BME280;58640;51.320;9.456;2023-03-26T01:07:04;98392.34;;;6.50;95.30
70982;BME280;58640;51.320;9.456;2023-03-26T01:09:36;98394.81;;;6.52;95.29
70982;BME280;58640;51.320;9.456;2023-03-26T01:12:10;98391.00;;;6.46;95.38
70982;BME280;58640;51.320;9.456;2023-03-26T01:14:37;98391.97;;;6.53;95.40
70982;BME280;58640;51.320;9.456;2023-03-26T01:17:05;98387.59;;;6.60;95.13
70982;BME280;58640;51.320;9.456;2023-03-26T01:22:18;98401.38;;;6.72;91.01
70982;BME280;58640;51.320;9.456;2023-03-26T01:24:44;98391.41;;;6.66;92.08
70982;BME280;58640;51.320;9.456;2023-03-26T01:27:19;98391.88;;;6.69;90.52
70982;BME280;58640;51.320;9.456;2023-03-26T01:29:55;98397.59;;;6.66;91.88
70982;BME280;58640;51.320;9.456;2023-03-26T01:32:50;98397.72;;;6.73;90.88
70982;BME280;58640;51.320;9.456;2023-03-26T01:35:26;98399.13;;;6.83;89.19
70982;BME280;58640;51.320;9.456;2023-03-26T01:40:33;98399.94;;;6.61;91.19
70982;BME280;58640;51.320;9.456;2023-03-26T01:45:46;98392.94;;;6.60;92.59
70982;BME280;58640;51.320;9.456;2023-03-26T01:48:13;98397.78;;;6.87;90.09
70982;BME280;58640;51.320;9.456;2023-03-26T01:50:39;98406.22;;;6.76;91.80
70982;BME280;58640;51.320;9.456;2023-03-26T01:53:06;98411.28;;;6.63;92.40
70982;BME280;58640;51.320;9.456;2023-03-26T01:55:45;98414.09;;;6.39;94.11
70982;BME280;58640;51.320;9.456;2023-03-26T01:58:20;98402.78;;;6.29;94.13
70982;BME280;58640;51.320;9.456;2023-03-26T02:03:35;98411.44;;;6.39;93.14
70982;BME280;58640;51.320;9.456;2023-03-26T02:06:09;98401.91;;;6.37;94.00
70982;BME280;58640;51.320;9.456;2023-03-26T02:08:42;98408.63;;;6.33;93.36
70982;BME280;58640;51.320;9.456;2023-03-26T02:11:12;98409.63;;;6.32;94.43
70982;BME280;58640;51.320;9.456;2023-03-26T02:13:40;98403.19;;;6.49;92.15
70982;BME280;58640;51.320;9.456;2023-03-26T02:16:08;98404.22;;;6.48;91.90
70982;BME280;58640;51.320;9.456;2023-03-26T02:18:34;98402.56;;;6.39;93.18
70982;BME280;58640;51.320;9.456;2023-03-26T02:21:11;98397.53;;;6.44;92.68
70982;BME280;58640;51.320;9.456;2023-03-26T02:23:40;98395.75;;;6.36;93.21
70982;BME280;58640;51.320;9.456;2023-03-26T02:26:10;98397.78;;;6.26;94.94
70982;BME280;58640;51.320;9.456;2023-03-26T02:28:36;98394.94;;;6.28;95.03
70982;BME280;58640;51.320;9.456;2023-03-26T02:31:02;98381.94;;;6.25;95.86
70982;BME280;58640;51.320;9.456;2023-03-26T02:33:28;98380.66;;;6.21;96.49
70982;BME280;58640;51.320;9.456;2023-03-26T02:35:54;98379.13;;;6.18;97.05
70982;BME280;58640;51.320;9.456;2023-03-26T02:38:24;98383.97;;;6.15;98.11
70982;BME280;58640;51.320;9.456;2023-03-26T02:40:51;98384.72;;;6.01;98.65
70982;BME280;58640;51.320;9.456;2023-03-26T02:43:17;98383.25;;;5.98;99.41
70982;BME280;58640;51.320;9.456;2023-03-26T02:45:42;98376.50;;;6.10;98.10
70982;BME280;58640;51.320;9.456;2023-03-26T02:48:08;98380.19;;;6.09;98.83
70982;BME280;58640;51.320;9.456;2023-03-26T02:50:33;98388.53;;;6.06;98.41
70982;BME280;58640;51.320;9.456;2023-03-26T02:53:01;98380.16;;;6.17;98.34
70982;BME280;58640;51.320;9.456;2023-03-26T02:55:26;98381.97;;;6.55;95.36
70982;BME280;58640;51.320;9.456;2023-03-26T02:57:52;98383.88;;;6.39;95.85
70982;BME280;58640;51.320;9.456;2023-03-26T03:00:17;98377.63;;;6.24;96.24
70982;BME280;58640;51.320;9.456;2023-03-26T03:02:46;98384.16;;;6.13;97.68
70982;BME280;58640;51.320;9.456;2023-03-26T03:05:14;98368.47;;;6.18;97.76
70982;BME280;58640;51.320;9.456;2023-03-26T03:07:42;98369.66;;;6.16;97.88
70982;BME280;58640;51.320;9.456;2023-03-26T03:10:07;98356.94;;;6.18;97.07
70982;BME280;58640;51.320;9.456;2023-03-26T03:12:34;98366.28;;;6.22;96.84
70982;BME280;58640;51.320;9.456;2023-03-26T03:15:01;98360.47;;;6.10;97.95
70982;BME280;58640;51.320;9.456;2023-03-26T03:17:26;98351.63;;;6.10;98.19
70982;BME280;58640;51.320;9.456;2023-03-26T03:19:52;98350.03;;;6.31;97.00
70982;BME280;58640;51.320;9.456;2023-03-26T03:22:17;98347.91;;;6.27;96.04
70982;BME280;58640;51.320;9.456;2023-03-26T03:24:44;98349.09;;;6.16;96.02
70982;BME280;58640;51.320;9.456;2023-03-26T03:27:10;98350.34;;;6.36;95.72
70982;BME280;58640;51.320;9.456;2023-03-26T03:29:36;98346.25;;;6.18;96.24
70982;BME280;58640;51.320;9.456;2023-03-26T03:32:02;98340.63;;;6.13;97.23
70982;BME280;58640;51.320;9.456;2023-03-26T03:34:27;98337.47;;;6.09;97.54
70982;BME280;58640;51.320;9.456;2023-03-26T03:36:52;98329.81;;;6.06;97.69
70982;BME280;58640;51.320;9.456;2023-03-26T03:39:18;98328.91;;;6.22;96.48
70982;BME280;58640;51.320;9.456;2023-03-26T03:41:43;98328.31;;;6.04;98.26
70982;BME280;58640;51.320;9.456;2023-03-26T03:44:08;98330.50;;;6.00;98.10
70982;BME280;58640;51.320;9.456;2023-03-26T03:46:34;98328.84;;;5.99;99.04
70982;BME280;58640;51.320;9.456;2023-03-26T03:49:00;98326.84;;;6.01;98.30
70982;BME280;58640;51.320;9.456;2023-03-26T03:51:25;98326.03;;;5.92;99.47
70982;BME280;58640;51.320;9.456;2023-03-26T03:53:51;98324.13;;;6.09;97.78
70982;BME280;58640;51.320;9.456;2023-03-26T03:56:16;98313.75;;;6.14;97.25
70982;BME280;58640;51.320;9.456;2023-03-26T03:58:43;98315.84;;;5.96;98.96
70982;BME280;58640;51.320;9.456;2023-03-26T04:01:10;98312.34;;;5.95;99.38
70982;BME280;58640;51.320;9.456;2023-03-26T04:03:37;98311.59;;;6.10;98.55
70982;BME280;58640;51.320;9.456;2023-03-26T04:06:07;98310.47;;;6.04;99.02
70982;BME280;58640;51.320;9.456;2023-03-26T04:08:35;98304.38;;;6.18;97.56
70982;BME280;58640;51.320;9.456;2023-03-26T04:11:01;98304.72;;;6.15;97.55
70982;BME280;58640;51.320;9.456;2023-03-26T04:13:26;98300.47;;;6.06;99.04
70982;BME280;58640;51.320;9.456;2023-03-26T04:15:51;98298.41;;;6.08;99.23
70982;BME280;58640;51.320;9.456;2023-03-26T04:18:17;98296.50;;;6.25;97.79
70982;BME280;58640;51.320;9.456;2023-03-26T04:20:43;98298.50;;;6.23;98.74
70982;BME280;58640;51.320;9.456;2023-03-26T04:23:16;98289.75;;;6.14;99.01
70982;BME280;58640;51.320;9.456;2023-03-26T04:25:44;98288.75;;;6.07;99.49
70982;BME280;58640;51.320;9.456;2023-03-26T04:28:38;98289.25;;;6.11;99.78
70982;BME280;58640;51.320;9.456;2023-03-26T04:31:08;98279.09;;;6.06;100.00
70982;BME280;58640;51.320;9.456;2023-03-26T04:33:36;98278.22;;;6.14;100.00
70982;BME280;58640;51.320;9.456;2023-03-26T04:36:03;98268.66;;;6.19;99.89
70982;BME280;58640;51.320;9.456;2023-03-26T04:38:32;98257.66;;;6.22;99.88
70982;BME280;58640;51.320;9.456;2023-03-26T04:41:02;98254.03;;;6.38;99.41
70982;BME280;58640;51.320;9.456;2023-03-26T04:43:27;98264.22;;;6.57;96.85
70982;BME280;58640;51.320;9.456;2023-03-26T04:45:54;98256.81;;;6.44;97.79
70982;BME280;58640;51.320;9.456;2023-03-26T04:48:20;98257.69;;;6.37;98.50
70982;BME280;58640;51.320;9.456;2023-03-26T04:50:46;98255.69;;;6.39;99.14
70982;BME280;58640;51.320;9.456;2023-03-26T04:53:15;98260.31;;;6.45;98.76
70982;BME280;58640;51.320;9.456;2023-03-26T04:55:45;98243.75;;;6.49;98.23
70982;BME280;58640;51.320;9.456;2023-03-26T04:58:13;98246.38;;;6.35;98.74
70982;BME280;58640;51.320;9.456;2023-03-26T05:00:40;98238.13;;;6.44;98.03
70982;BME280;58640;51.320;9.456;2023-03-26T05:03:09;98232.41;;;6.47;97.86
70982;BME280;58640;51.320;9.456;2023-03-26T05:05:35;98245.34;;;6.58;96.92
70982;BME280;58640;51.320;9.456;2023-03-26T05:08:01;98239.13;;;6.43;98.63
70982;BME280;58640;51.320;9.456;2023-03-26T05:10:26;98246.31;;;6.43;98.60
70982;BME280;58640;51.320;9.456;2023-03-26T05:12:51;98236.31;;;6.37;99.64
70982;BME280;58640;51.320;9.456;2023-03-26T05:15:17;98229.41;;;6.28;100.00
70982;BME280;58640;51.320;9.456;2023-03-26T05:17:43;98225.88;;;6.27;100.00
70982;BME280;58640;51.320;9.456;2023-03-26T05:20:23;98221.56;;;6.26;100.00
70982;BME280;58640;51.320;9.456;2023-03-26T05:22:50;98217.63;;;6.37;100.00
70982;BME280;58640;51.320;9.456;2023-03-26T05:25:17;98207.00;;;6.29;100.00
70982;BME280;58640;51.320;9.456;2023-03-26T05:27:43;98214.28;;;6.43;98.82
70982;BME280;58640;51.320;9.456;2023-03-26T05:30:13;98212.59;;;6.42;99.21
70982;BME280;58640;51.320;9.456;2023-03-26T05:32:39;98215.59;;;6.61;96.91
70982;BME280;58640;51.320;9.456;2023-03-26T05:35:04;98208.28;;;6.41;98.46
70982;BME280;58640;51.320;9.456;2023-03-26T05:37:30;98207.03;;;6.66;97.13
70982;BME280;58640;51.320;9.456;2023-03-26T05:39:56;98211.13;;;6.76;95.98
70982;BME280;58640;51.320;9.456;2023-03-26T05:42:22;98213.59;;;6.63;96.76
70982;BME280;58640;51.320;9.456;2023-03-26T05:44:47;98219.91;;;6.62;97.40
70982;BME280;58640;51.320;9.456;2023-03-26T05:47:13;98212.34;;;6.51;98.59
70982;BME280;58640;51.320;9.456;2023-03-26T05:49:38;98207.59;;;6.61;97.74
70982;BME280;58640;51.320;9.456;2023-03-26T05:52:04;98203.88;;;6.62;97.85
70982;BME280;58640;51.320;9.456;2023-03-26T05:54:29;98203.31;;;6.75;97.24
70982;BME280;58640;51.320;9.456;2023-03-26T05:56:55;98202.78;;;6.57;98.05
70982;BME280;58640;51.320;9.456;2023-03-26T05:59:22;98196.16;;;6.67;97.19
70982;BME280;58640;51.320;9.456;2023-03-26T06:01:47;98192.63;;;6.75;96.80
70982;BME280;58640;51.320;9.456;2023-03-26T06:04:15;98188.81;;;6.69;96.90
70982;BME280;58640;51.320;9.456;2023-03-26T06:06:41;98184.94;;;6.86;95.73
70982;BME280;58640;51.320;9.456;2023-03-26T06:09:07;98176.88;;;7.09;94.18
70982;BME280;58640;51.320;9.456;2023-03-26T06:11:32;98173.63;;;7.13;93.90
70982;BME280;58640;51.320;9.456;2023-03-26T06:13:58;98171.13;;;7.12;94.13
70982;BME280;58640;51.320;9.456;2023-03-26T06:16:25;98171.69;;;6.93;94.85
70982;BME280;58640;51.320;9.456;2023-03-26T06:18:50;98160.44;;;7.12;94.13
70982;BME280;58640;51.320;9.456;2023-03-26T06:21:16;98169.78;;;7.16;92.92
70982;BME280;58640;51.320;9.456;2023-03-26T06:23:42;98161.19;;;7.06;94.26
70982;BME280;58640;51.320;9.456;2023-03-26T06:26:07;98164.13;;;7.40;92.26
70982;BME280;58640;51.320;9.456;2023-03-26T06:28:33;98160.16;;;7.21;92.80
70982;BME280;58640;51.320;9.456;2023-03-26T06:30:59;98160.16;;;7.36;93.04
70982;BME280;58640;51.320;9.456;2023-03-26T06:33:25;98161.16;;;7.50;92.17
70982;BME280;58640;51.320;9.456;2023-03-26T06:35:51;98152.09;;;7.51;91.77
70982;BME280;58640;51.320;9.456;2023-03-26T06:38:16;98158.34;;;7.72;90.88
70982;BME280;58640;51.320;9.456;2023-03-26T06:40:42;98153.41;;;7.76;90.48
70982;BME280;58640;51.320;9.456;2023-03-26T06:43:07;98147.16;;;7.83;89.99
70982;BME280;58640;51.320;9.456;2023-03-26T06:45:33;98153.19;;;8.13;87.52
70982;BME280;58640;51.320;9.456;2023-03-26T06:47:58;98156.16;;;8.39;86.54
70982;BME280;58640;51.320;9.456;2023-03-26T06:50:24;98153.22;;;8.34;86.58
70982;BME280;58640;51.320;9.456;2023-03-26T06:52:55;98160.81;;;8.30;86.77
70982;BME280;58640;51.320;9.456;2023-03-26T06:55:21;98149.19;;;8.44;86.30
70982;BME280;58640;51.320;9.456;2023-03-26T06:57:51;98144.47;;;8.46;86.06
70982;BME280;58640;51.320;9.456;2023-03-26T07:00:17;98149.22;;;8.72;84.66
70982;BME280;58640;51.320;9.456;2023-03-26T07:02:42;98152.00;;;8.85;84.87
70982;BME280;58640;51.320;9.456;2023-03-26T07:05:08;98145.19;;;9.23;83.54
70982;BME280;58640;51.320;9.456;2023-03-26T07:07:34;98145.03;;;9.31;82.48
70982;BME280;58640;51.320;9.456;2023-03-26T07:09:59;98147.41;;;9.54;82.10
70982;BME280;58640;51.320;9.456;2023-03-26T07:12:25;98142.03;;;10.07;78.19
70982;BME280;58640;51.320;9.456;2023-03-26T07:14:51;98139.59;;;10.32;77.42
70982;BME280;58640;51.320;9.456;2023-03-26T07:17:16;98134.41;;;10.44;75.72
70982;BME280;58640;51.320;9.456;2023-03-26T07:19:42;98137.94;;;10.51;75.83
70982;BME280;58640;51.320;9.456;2023-03-26T07:22:14;98135.22;;;10.24;76.54
70982;BME280;58640;51.320;9.456;2023-03-26T07:24:43;98130.66;;;10.71;74.86
70982;BME280;58640;51.320;9.456;2023-03-26T07:29:52;98133.78;;;10.61;75.06
70982;BME280;58640;51.320;9.456;2023-03-26T07:32:24;98136.19;;;10.04;76.32
70982;BME280;58640;51.320;9.456;2023-03-26T07:40:00;98129.56;;;9.87;77.38
70982;BME280;58640;51.320;9.456;2023-03-26T07:42:59;98124.22;;;10.06;75.88
70982;BME280;58640;51.320;9.456;2023-03-26T07:45:36;98121.75;;;10.05;76.17
70982;BME280;58640;51.320;9.456;2023-03-26T07:48:30;98125.44;;;10.04;75.94
70982;BME280;58640;51.320;9.456;2023-03-26T07:50:54;98126.91;;;10.06;76.11
70982;BME280;58640;51.320;9.456;2023-03-26T07:53:20;98135.03;;;10.72;73.34
70982;BME280;58640;51.320;9.456;2023-03-26T08:00:56;98132.22;;;9.87;77.16
70982;BME280;58640;51.320;9.456;2023-03-26T08:06:35;98129.97;;;9.37;79.64
70982;BME280;58640;51.320;9.456;2023-03-26T08:09:21;98122.50;;;9.73;78.08
70982;BME280;58640;51.320;9.456;2023-03-26T08:11:56;98119.34;;;9.56;78.73
70982;BME280;58640;51.320;9.456;2023-03-26T08:14:47;98116.06;;;9.67;78.09
70982;BME280;58640;51.320;9.456;2023-03-26T08:17:26;98114.00;;;9.16;80.93
70982;BME280;58640;51.320;9.456;2023-03-26T08:20:19;98112.34;;;9.15;79.93
70982;BME280;58640;51.320;9.456;2023-03-26T08:22:49;98099.94;;;9.61;78.66
70982;BME280;58640;51.320;9.456;2023-03-26T08:25:26;98090.03;;;9.61;78.26
70982;BME280;58640;51.320;9.456;2023-03-26T08:30:36;98099.38;;;9.18;81.04
70982;BME280;58640;51.320;9.456;2023-03-26T08:33:12;98094.16;;;9.64;79.41
70982;BME280;58640;51.320;9.456;2023-03-26T08:35:41;98086.47;;;9.41;80.08
70982;BME280;58640;51.320;9.456;2023-03-26T08:38:14;98091.31;;;9.18;80.76
70982;BME280;58640;51.320;9.456;2023-03-26T08:46:46;98073.63;;;9.30;81.57
70982;BME280;58640;51.320;9.456;2023-03-26T08:49:24;98077.94;;;9.25;80.59
70982;BME280;58640;51.320;9.456;2023-03-26T08:52:13;98064.31;;;9.26;81.18
70982;BME280;58640;51.320;9.456;2023-03-26T08:58:33;98061.38;;;9.75;78.45
70982;BME280;58640;51.320;9.456;2023-03-26T09:03:22;98060.56;;;10.00;78.02
70982;BME280;58640;51.320;9.456;2023-03-26T09:06:14;98065.34;;;10.31;77.21
70982;BME280;58640;51.320;9.456;2023-03-26T09:09:20;98058.13;;;10.18;76.30
70982;BME280;58640;51.320;9.456;2023-03-26T09:15:02;98053.94;;;9.96;78.30
70982;BME280;58640;51.320;9.456;2023-03-26T09:17:42;98047.38;;;10.12;76.91
70982;BME280;58640;51.320;9.456;2023-03-26T09:20:41;98043.25;;;10.16;75.33
70982;BME280;58640;51.320;9.456;2023-03-26T09:39:34;98033.94;;;9.19;82.51
70982;BME280;58640;51.320;9.456;2023-03-26T09:47:57;98028.91;;;9.83;79.90
70982;BME280;58640;51.320;9.456;2023-03-26T09:56:51;98025.78;;;9.53;80.84
70982;BME280;58640;51.320;9.456;2023-03-26T10:00:02;98031.44;;;9.78;80.96
70982;BME280;58640;51.320;9.456;2023-03-26T10:10:56;98017.34;;;9.63;82.93
70982;BME280;58640;51.320;9.456;2023-03-26T10:13:32;98018.19;;;9.83;82.45
70982;BME280;58640;51.320;9.456;2023-03-26T10:40:58;98010.34;;;9.02;88.63
70982;BME280;58640;51.320;9.456;2023-03-26T10:51:53;98013.59;;;9.38;88.11
70982;BME280;58640;51.320;9.456;2023-03-26T10:54:49;98000.97;;;9.38;87.91
70982;BME280;58640;51.320;9.456;2023-03-26T10:57:38;98001.28;;;9.03;88.79
70982;BME280;58640;51.320;9.456;2023-03-26T11:14:26;98001.34;;;9.16;88.38
70982;BME280;58640;51.320;9.456;2023-03-26T11:28:23;97989.53;;;9.04;89.69
70982;BME280;58640;51.320;9.456;2023-03-26T11:31:12;97990.28;;;8.84;90.57
70982;BME280;58640;51.320;9.456;2023-03-26T11:33:46;97998.59;;;8.55;92.38
70982;BME280;58640;51.320;9.456;2023-03-26T11:36:16;97996.69;;;8.22;95.97
70982;BME280;58640;51.320;9.456;2023-03-26T11:38:46;97997.34;;;8.51;93.25
70982;BME280;58640;51.320;9.456;2023-03-26T11:41:18;97998.53;;;8.42;94.77
70982;BME280;58640;51.320;9.456;2023-03-26T11:43:48;98002.97;;;8.29;94.60
70982;BME280;58640;51.320;9.456;2023-03-26T11:46:17;97997.44;;;8.09;93.33
70982;BME280;58640;51.320;9.456;2023-03-26T11:48:48;97995.16;;;8.34;91.82
70982;BME280;58640;51.320;9.456;2023-03-26T11:51:22;97993.69;;;8.31;92.20
70982;BME280;58640;51.320;9.456;2023-03-26T11:53:49;97997.81;;;8.27;92.22
70982;BME280;58640;51.320;9.456;2023-03-26T11:58:54;97982.47;;;8.42;92.77
70982;BME280;58640;51.320;9.456;2023-03-26T12:01:40;97987.03;;;8.48;91.95
70982;BME280;58640;51.320;9.456;2023-03-26T12:04:12;97983.13;;;8.57;92.28
70982;BME280;58640;51.320;9.456;2023-03-26T12:06:38;97984.75;;;8.45;94.19
70982;BME280;58640;51.320;9.456;2023-03-26T12:09:15;97981.53;;;8.63;90.33
70982;BME280;58640;51.320;9.456;2023-03-26T12:11:41;97977.59;;;8.59;91.13
70982;BME280;58640;51.320;9.456;2023-03-26T12:14:16;97979.06;;;8.68;91.58
70982;BME280;58640;51.320;9.456;2023-03-26T12:17:06;97974.41;;;8.42;93.16
70982;BME280;58640;51.320;9.456;2023-03-26T12:19:38;97979.25;;;8.26;93.54
70982;BME280;58640;51.320;9.456;2023-03-26T12:22:04;97982.59;;;8.07;91.70
70982;BME280;58640;51.320;9.456;2023-03-26T12:24:34;97969.09;;;8.21;88.25
70982;BME280;58640;51.320;9.456;2023-03-26T12:27:20;97970.50;;;8.17;87.13
70982;BME280;58640;51.320;9.456;2023-03-26T12:29:57;97964.34;;;7.89;89.37
70982;BME280;58640;51.320;9.456;2023-03-26T12:32:30;97964.53;;;7.88;91.03
70982;BME280;58640;51.320;9.456;2023-03-26T12:34:56;97959.44;;;7.93;90.04
70982;BME280;58640;51.320;9.456;2023-03-26T12:42:58;97949.53;;;7.93;90.29
70982;BME280;58640;51.320;9.456;2023-03-26T12:45:36;97955.69;;;7.66;91.84
70982;BME280;58640;51.320;9.456;2023-03-26T12:48:02;97958.25;;;7.74;91.96
70982;BME280;58640;51.320;9.456;2023-03-26T12:50:53;97957.13;;;7.62;93.41
70982;BME280;58640;51.320;9.456;2023-03-26T12:53:35;97954.72;;;7.46;91.71
70982;BME280;58640;51.320;9.456;2023-03-26T12:56:07;97951.69;;;7.77;91.08
70982;BME280;58640;51.320;9.456;2023-03-26T12:59:00;97946.56;;;7.54;93.96
70982;BME280;58640;51.320;9.456;2023-03-26T13:01:56;97950.69;;;7.57;92.58
70982;BME280;58640;51.320;9.456;2023-03-26T13:15:51;97924.53;;;8.07;90.54
70982;BME280;58640;51.320;9.456;2023-03-26T13:18:35;97927.66;;;8.17;87.74
70982;BME280;58640;51.320;9.456;2023-03-26T13:27:29;97910.25;;;8.28;87.19
70982;BME280;58640;51.320;9.456;2023-03-26T13:32:49;97902.72;;;8.51;85.78
70982;BME280;58640;51.320;9.456;2023-03-26T13:35:48;97891.66;;;8.73;86.44
70982;BME280;58640;51.320;9.456;2023-03-26T13:40:57;97894.00;;;8.89;85.04
70982;BME280;58640;51.320;9.456;2023-03-26T13:52:14;97889.69;;;8.95;81.30
70982;BME280;58640;51.320;9.456;2023-03-26T13:57:40;97881.38;;;8.77;83.10
70982;BME280;58640;51.320;9.456;2023-03-26T14:00:14;97876.25;;;8.88;83.08
70982;BME280;58640;51.320;9.456;2023-03-26T14:02:42;97878.69;;;8.70;84.86
70982;BME280;58640;51.320;9.456;2023-03-26T14:05:50;97874.78;;;8.26;84.90
70982;BME280;58640;51.320;9.456;2023-03-26T14:08:20;97863.19;;;8.59;83.62
70982;BME280;58640;51.320;9.456;2023-03-26T14:10:51;97861.75;;;8.70;82.32
70982;BME280;58640;51.320;9.456;2023-03-26T14:13:34;97862.94;;;8.54;83.07
70982;BME280;58640;51.320;9.456;2023-03-26T14:16:13;97860.25;;;8.48;84.45
70982;BME280;58640;51.320;9.456;2023-03-26T14:19:04;97853.38;;;8.26;85.04
70982;BME280;58640;51.320;9.456;2023-03-26T14:27:39;97858.75;;;9.12;81.52
70982;BME280;58640;51.320;9.456;2023-03-26T14:33:21;97850.88;;;8.91;82.57
70982;BME280;58640;51.320;9.456;2023-03-26T14:41:55;97847.00;;;8.33;85.31
70982;BME280;58640;51.320;9.456;2023-03-26T14:44:55;97839.44;;;8.50;85.70
70982;BME280;58640;51.320;9.456;2023-03-26T14:47:23;97842.47;;;8.00;88.32
70982;BME280;58640;51.320;9.456;2023-03-26T14:52:51;97841.00;;;8.31;87.10
70982;BME280;58640;51.320;9.456;2023-03-26T14:58:46;97840.28;;;8.57;85.25
70982;BME280;58640;51.320;9.456;2023-03-26T15:10:21;97839.59;;;8.35;85.71
70982;BME280;58640;51.320;9.456;2023-03-26T15:13:14;97837.81;;;8.62;83.30
70982;BME280;58640;51.320;9.456;2023-03-26T15:16:05;97835.69;;;8.44;84.57
70982;BME280;58640;51.320;9.456;2023-03-26T15:21:47;97836.28;;;8.33;85.34
70982;BME280;58640;51.320;9.456;2023-03-26T15:33:09;97837.75;;;8.36;86.81
70982;BME280;58640;51.320;9.456;2023-03-26T15:44:35;97828.66;;;7.90;91.35
70982;BME280;58640;51.320;9.456;2023-03-26T15:55:39;97832.00;;;8.05;90.19
70982;BME280;58640;51.320;9.456;2023-03-26T15:58:21;97843.81;;;8.17;90.44
70982;BME280;58640;51.320;9.456;2023-03-26T16:04:08;97838.03;;;8.13;90.47
70982;BME280;58640;51.320;9.456;2023-03-26T16:06:46;97839.22;;;8.04;91.49
70982;BME280;58640;51.320;9.456;2023-03-26T16:09:24;97836.09;;;7.94;91.77
70982;BME280;58640;51.320;9.456;2023-03-26T16:11:53;97838.13;;;7.92;92.04
70982;BME280;58640;51.320;9.456;2023-03-26T16:17:01;97841.03;;;7.97;92.09
70982;BME280;58640;51.320;9.456;2023-03-26T16:25:29;97845.88;;;7.81;95.12
70982;BME280;58640;51.320;9.456;2023-03-26T16:28:15;97846.88;;;7.73;95.21
70982;BME280;58640;51.320;9.456;2023-03-26T16:30:43;97854.66;;;7.68;96.39
70982;BME280;58640;51.320;9.456;2023-03-26T16:33:36;97853.88;;;7.74;95.36
70982;BME280;58640;51.320;9.456;2023-03-26T16:36:32;97853.00;;;8.01;92.86
70982;BME280;58640;51.320;9.456;2023-03-26T16:41:25;97852.38;;;7.65;93.13
70982;BME280;58640;51.320;9.456;2023-03-26T16:47:00;97858.47;;;7.87;91.90
70982;BME280;58640;51.320;9.456;2023-03-26T16:50:00;97866.03;;;7.77;91.87
70982;BME280;58640;51.320;9.456;2023-03-26T17:03:59;97877.53;;;7.71;92.47
70982;BME280;58640;51.320;9.456;2023-03-26T17:12:13;97890.41;;;7.61;91.35
70982;BME280;58640;51.320;9.456;2023-03-26T17:17:56;97905.91;;;7.44;92.18
70982;BME280;58640;51.320;9.456;2023-03-26T17:20:41;97900.03;;;7.55;91.08
70982;BME280;58640;51.320;9.456;2023-03-26T17:23:35;97902.72;;;7.55;91.35
70982;BME280;58640;51.320;9.456;2023-03-26T17:26:18;97913.22;;;7.29;93.30
70982;BME280;58640;51.320;9.456;2023-03-26T17:28:47;97912.75;;;7.25;94.65
70982;BME280;58640;51.320;9.456;2023-03-26T17:31:24;97920.53;;;7.41;94.58
70982;BME280;58640;51.320;9.456;2023-03-26T17:33:52;97926.81;;;7.34;95.62
70982;BME280;58640;51.320;9.456;2023-03-26T17:41:11;97926.31;;;7.24;96.21
70982;BME280;58640;51.320;9.456;2023-03-26T17:46:42;97933.56;;;7.09;98.06
70982;BME280;58640;51.320;9.456;2023-03-26T17:51:53;97935.66;;;7.13;97.05
70982;BME280;58640;51.320;9.456;2023-03-26T17:54:31;97945.03;;;7.24;96.82
70982;BME280;58640;51.320;9.456;2023-03-26T17:57:05;97950.47;;;7.30;95.28
70982;BME280;58640;51.320;9.456;2023-03-26T17:59:32;97959.63;;;7.42;94.27
70982;BME280;58640;51.320;9.456;2023-03-26T18:01:59;97961.53;;;7.27;94.97
70982;BME280;58640;51.320;9.456;2023-03-26T18:04:34;97958.72;;;7.14;96.05
70982;BME280;58640;51.320;9.456;2023-03-26T18:07:36;97962.16;;;7.29;95.11
70982;BME280;58640;51.320;9.456;2023-03-26T18:18:31;97977.75;;;7.05;95.16
70982;BME280;58640;51.320;9.456;2023-03-26T18:21:03;97985.53;;;7.21;93.78
70982;BME280;58640;51.320;9.456;2023-03-26T18:23:35;97991.94;;;7.05;94.45
70982;BME280;58640;51.320;9.456;2023-03-26T18:29:29;98005.81;;;7.15;94.01
70982;BME280;58640;51.320;9.456;2023-03-26T18:32:00;98013.81;;;6.94;94.59
70982;BME280;58640;51.320;9.456;2023-03-26T18:34:31;98011.72;;;6.75;95.17
70982;BME280;58640;51.320;9.456;2023-03-26T18:37:07;98014.69;;;6.66;96.23